createdAt,value
2023-02-18T00:00:01.133Z,99654.33
2023-02-18T00:02:33.408Z,99669.47
2023-02-18T00:05:04.776Z,99651.08
2023-02-18T00:07:39.284Z,99651.08
2023-02-18T00:10:14.360Z,99644.14
2023-02-18T00:12:44.995Z,99629.54
2023-02-18T00:15:15.669Z,99665.38
2023-02-18T00:30:43.715Z,99644.00
2023-02-18T00:33:14.259Z,99652.14
2023-02-18T00:35:44.736Z,99651.34
2023-02-18T00:38:15.202Z,99668.11
2023-02-18T00:40:46.897Z,99671.54
2023-02-18T00:56:52.462Z,99683.17
2023-02-18T00:59:23.018Z,99682.11
2023-02-18T01:01:53.555Z,99661.52
2023-02-18T01:04:24.149Z,99676.12
2023-02-18T01:06:54.673Z,99659.33
2023-02-18T01:09:25.916Z,99709.30
2023-02-18T01:11:56.356Z,99659.64
2023-02-18T01:14:26.928Z,99636.86
2023-02-18T01:16:57.394Z,99745.31
2023-02-18T01:19:27.877Z,99624.15
2023-02-18T01:21:58.521Z,99696.83
2023-02-18T01:24:28.980Z,99696.83
2023-02-18T01:26:59.502Z,99736.72
2023-02-18T01:29:29.974Z,99713.56
2023-02-18T01:32:01.796Z,99698.09
2023-02-18T01:55:47.541Z,99674.28
2023-02-18T01:58:19.811Z,99694.06
2023-02-18T02:00:50.389Z,99693.88
2023-02-18T02:03:20.902Z,99747.45
2023-02-18T02:17:42.536Z,99719.73
2023-02-18T02:20:27.968Z,99719.87
2023-02-18T02:23:03.893Z,99731.05
2023-02-18T02:25:59.734Z,99774.35
2023-02-18T02:28:35.840Z,99739.48
2023-02-18T02:31:41.389Z,99692.78
2023-02-18T02:34:37.590Z,99692.78
2023-02-18T02:37:11.849Z,99759.25
2023-02-18T02:39:47.647Z,99741.70
2023-02-18T02:42:49.796Z,99726.09
2023-02-18T02:45:44.390Z,99726.09
2023-02-18T02:48:38.765Z,99748.40
2023-02-18T02:51:17.846Z,99733.72
2023-02-18T02:53:48.308Z,99723.47
2023-02-18T02:56:24.257Z,99740.50
2023-02-18T02:59:00.535Z,99742.33
2023-02-18T03:01:52.168Z,99823.28
2023-02-18T03:04:46.653Z,99738.88
2023-02-18T03:07:55.041Z,99734.85
2023-02-18T03:10:29.630Z,99753.72
2023-02-18T03:13:19.215Z,99748.96
2023-02-18T03:26:28.106Z,99756.84
2023-02-18T03:29:01.481Z,99748.95
2023-02-18T03:31:35.093Z,99731.84
2023-02-18T03:34:14.628Z,99735.59
2023-02-18T03:36:46.319Z,99735.59
2023-02-18T03:39:20.049Z,99764.17
2023-02-18T03:41:51.828Z,99743.39
2023-02-18T03:44:22.587Z,99720.22
2023-02-18T03:46:53.541Z,99768.79
2023-02-18T03:49:25.183Z,99743.25
2023-02-18T03:51:55.696Z,99778.23
2023-02-18T03:54:26.146Z,99748.91
2023-02-18T03:56:56.605Z,99799.05
2023-02-18T03:59:27.146Z,99778.93
2023-02-18T04:01:57.607Z,99771.59
2023-02-18T04:04:29.637Z,99762.70
2023-02-18T04:07:00.230Z,99800.89
2023-02-18T04:09:30.665Z,99757.02
2023-02-18T04:12:01.118Z,99779.39
2023-02-18T04:14:31.589Z,99768.28
2023-02-18T04:17:02.218Z,99772.22
2023-02-18T04:19:32.669Z,99760.23
2023-02-18T04:22:03.352Z,99777.08
2023-02-18T04:24:33.805Z,99753.90
2023-02-18T04:27:04.365Z,99757.44
2023-02-18T04:29:35.037Z,99773.16
2023-02-18T04:32:05.727Z,99758.32
2023-02-18T04:34:37.547Z,99772.04
2023-02-18T04:37:08.066Z,99781.80
2023-02-18T04:39:38.584Z,99778.85
2023-02-18T04:42:10.489Z,99800.70
2023-02-18T04:44:41.259Z,99771.06
2023-02-18T04:47:12.885Z,99806.67
2023-02-18T04:49:44.802Z,99793.26
2023-02-18T04:52:15.283Z,99787.94
2023-02-18T04:54:46.048Z,99810.94
2023-02-18T04:57:16.904Z,99801.33
2023-02-18T04:59:48.469Z,99851.58
2023-02-18T05:02:19.272Z,99792.29
2023-02-18T05:04:50.042Z,99803.27
2023-02-18T05:07:20.596Z,99809.36
2023-02-18T05:09:51.048Z,99814.90
2023-02-18T05:12:21.531Z,99808.61
2023-02-18T05:14:52.060Z,99809.97
2023-02-18T05:17:22.660Z,99832.95
2023-02-18T05:19:53.118Z,99826.72
2023-02-18T05:22:23.580Z,99814.90
2023-02-18T05:24:54.077Z,99805.53
2023-02-18T05:27:24.578Z,99795.58
2023-02-18T05:29:55.095Z,99855.39
2023-02-18T05:32:26.206Z,99843.07
2023-02-18T05:34:56.699Z,99807.77
2023-02-18T05:37:27.195Z,99821.13
2023-02-18T05:39:57.806Z,99837.58
2023-02-18T05:42:28.377Z,99827.63
2023-02-18T05:44:59.280Z,99831.88
2023-02-18T05:47:29.782Z,99830.94
2023-02-18T05:50:00.244Z,99832.13
2023-02-18T05:52:30.747Z,99849.84
2023-02-18T05:55:01.215Z,99852.52
2023-02-18T05:57:31.716Z,99875.78
2023-02-18T06:00:02.208Z,99858.77
2023-02-18T06:02:32.886Z,99853.40
2023-02-18T06:05:05.775Z,99890.42
2023-02-18T06:07:36.561Z,99877.20
2023-02-18T06:10:08.595Z,99883.22
2023-02-18T06:12:39.099Z,99869.55
2023-02-18T06:15:10.013Z,99865.23
2023-02-18T06:17:41.990Z,99894.50
2023-02-18T06:20:16.306Z,99859.69
2023-02-18T06:22:47.135Z,99870.63
2023-02-18T06:25:21.512Z,99880.48
2023-02-18T06:27:56.717Z,99879.03
2023-02-18T06:30:30.318Z,99878.87
2023-02-18T06:33:02.683Z,99869.99
2023-02-18T06:35:34.740Z,99885.45
2023-02-18T06:38:07.832Z,99900.55
2023-02-18T06:40:40.818Z,99901.19
2023-02-18T06:43:12.773Z,99889.33
2023-02-18T06:45:44.949Z,99916.28
2023-02-18T06:48:17.073Z,99904.19
2023-02-18T06:50:52.479Z,99925.53
2023-02-18T06:53:25.866Z,99938.80
2023-02-18T06:55:59.396Z,99923.37
2023-02-18T06:58:34.289Z,99935.87
2023-02-18T07:01:08.882Z,99913.20
2023-02-18T07:03:40.472Z,99909.19
2023-02-18T07:06:13.158Z,99946.41
2023-02-18T07:08:48.860Z,99968.78
2023-02-18T07:11:25.824Z,99925.50
2023-02-18T07:13:58.984Z,99922.94
2023-02-18T07:16:42.219Z,99940.92
2023-02-18T07:33:33.922Z,99927.83
2023-02-18T07:36:05.440Z,99929.52
2023-02-18T07:38:35.978Z,99920.77
2023-02-18T07:41:06.671Z,99920.77
2023-02-18T07:43:37.168Z,99948.64
2023-02-18T07:46:09.004Z,99949.20
2023-02-18T07:48:39.757Z,99949.20
2023-02-18T08:03:39.819Z,99964.66
2023-02-18T08:06:11.849Z,99954.97
2023-02-18T08:08:42.362Z,99957.20
2023-02-18T08:11:19.021Z,99962.66
2023-02-18T08:13:46.967Z,99947.93
2023-02-18T08:16:19.600Z,99983.02
2023-02-18T08:18:51.657Z,100002.05
2023-02-18T08:21:24.496Z,100002.05
2023-02-18T09:02:54.507Z,99989.74
2023-02-18T09:05:24.996Z,100044.82
2023-02-18T09:07:55.651Z,99992.20
2023-02-18T09:10:26.880Z,100007.77
2023-02-18T09:12:58.721Z,100007.77
2023-02-18T09:15:29.295Z,100007.89
2023-02-18T09:18:00.140Z,100022.65
2023-02-18T09:20:31.667Z,100003.73
2023-02-18T09:23:03.914Z,100009.52
2023-02-18T09:25:35.578Z,100001.94
2023-02-18T09:28:06.026Z,100009.19
2023-02-18T09:30:36.552Z,99989.78
2023-02-18T09:33:07.521Z,99989.78
2023-02-18T09:35:43.366Z,100004.70
2023-02-18T09:38:16.405Z,100014.69
2023-02-18T09:40:50.325Z,99987.45
2023-02-18T09:43:35.842Z,99987.45
2023-02-18T09:46:08.619Z,100021.78
2023-02-18T09:48:39.711Z,100021.61
2023-02-18T09:51:13.235Z,100026.52
2023-02-18T09:53:47.975Z,99990.62
2023-02-18T09:56:30.334Z,99990.40
2023-02-18T09:59:02.916Z,99982.16
2023-02-18T10:01:39.182Z,99982.16
2023-02-18T10:04:19.320Z,100002.57
2023-02-18T10:06:52.754Z,99975.42
2023-02-18T10:09:28.832Z,99975.42
2023-02-18T10:12:08.101Z,99977.38
2023-02-18T10:14:38.611Z,100244.66
2023-02-18T10:17:11.825Z,99993.89
2023-02-18T10:19:44.504Z,99965.13
2023-02-18T10:22:17.378Z,99965.13
2023-02-18T10:24:59.649Z,99992.07
2023-02-18T10:27:36.415Z,99992.07
2023-02-18T10:30:34.208Z,99964.79
2023-02-18T10:33:19.522Z,99973.45
2023-02-18T10:35:55.660Z,99986.09
2023-02-18T10:38:29.130Z,99960.44
2023-02-18T10:41:05.280Z,99976.52
2023-02-18T10:43:45.589Z,99964.47
2023-02-18T10:46:42.959Z,99963.09
2023-02-18T10:49:35.856Z,99969.20
2023-02-18T10:52:10.302Z,99960.88
2023-02-18T10:54:52.413Z,99939.66
2023-02-18T10:57:25.065Z,99938.55
2023-02-18T11:00:05.544Z,99919.38
2023-02-18T11:02:35.999Z,99919.38
2023-02-18T11:05:27.643Z,99937.27
2023-02-18T11:08:02.836Z,99931.56
2023-02-18T11:10:36.194Z,99937.73
2023-02-18T11:13:09.099Z,99932.64
2023-02-18T11:15:39.892Z,99932.64
2023-02-18T11:18:28.762Z,99941.55
2023-02-18T11:21:02.284Z,99920.80
2023-02-18T11:23:33.308Z,99914.67
2023-02-18T11:26:10.374Z,99914.67
2023-02-18T11:28:52.348Z,99923.88
2023-02-18T11:31:28.816Z,99950.44
2023-02-18T11:34:03.326Z,99891.25
2023-02-18T11:36:38.831Z,99891.25
2023-02-18T11:39:18.013Z,99910.27
2023-02-18T11:41:51.263Z,99903.72
2023-02-18T11:44:30.204Z,99878.22
2023-02-18T11:47:04.524Z,99837.22
2023-02-18T11:49:36.979Z,99866.09
2023-02-18T11:52:19.150Z,99866.09
2023-02-18T11:55:08.944Z,99847.73
2023-02-18T11:57:43.160Z,99847.73
2023-02-18T12:00:24.878Z,99838.76
2023-02-18T12:02:58.295Z,99827.78
2023-02-18T12:05:30.754Z,99827.78
2023-02-18T12:08:10.198Z,99850.88
2023-02-18T12:10:43.536Z,99850.88
2023-02-18T12:13:41.480Z,99837.38
2023-02-18T12:16:27.532Z,99849.66
2023-02-18T12:19:10.472Z,99845.09
2023-02-18T12:21:55.913Z,99844.50
2023-02-18T12:24:29.269Z,99817.06
2023-02-18T12:27:23.949Z,99839.83
2023-02-18T12:30:12.416Z,99815.42
2023-02-18T12:33:14.589Z,99829.46
2023-02-18T12:35:54.242Z,99805.03
2023-02-18T12:38:33.831Z,99805.03
2023-02-18T12:41:26.180Z,99824.53
2023-02-18T12:44:16.560Z,99809.41
2023-02-18T12:46:53.619Z,99810.25
2023-02-18T12:49:36.214Z,99761.98
2023-02-18T12:52:12.690Z,99761.98
2023-02-18T12:54:55.655Z,99797.66
2023-02-18T12:57:34.533Z,99794.87
2023-02-18T13:00:32.100Z,99794.87
2023-02-18T13:03:32.633Z,99794.91
2023-02-18T13:06:24.644Z,99762.80
2023-02-18T13:09:04.620Z,99762.80
2023-02-18T13:11:46.850Z,99767.71
2023-02-18T13:14:29.500Z,99765.92
2023-02-18T13:17:02.934Z,99760.09
2023-02-18T13:19:48.125Z,99760.56
2023-02-18T13:22:22.173Z,99735.38
2023-02-18T13:24:54.926Z,99764.49
2023-02-18T13:27:40.226Z,99746.70
2023-02-18T13:30:29.191Z,99778.82
2023-02-18T13:33:26.997Z,99740.48
2023-02-18T13:36:19.627Z,99740.48
2023-02-18T13:38:56.066Z,99789.70
2023-02-18T13:41:28.622Z,99789.70
2023-02-18T13:43:59.091Z,99777.36
2023-02-18T13:46:29.727Z,99778.04
2023-02-18T13:49:08.443Z,99786.45
2023-02-18T13:51:49.637Z,99780.49
2023-02-18T13:54:39.513Z,99757.75
2023-02-18T13:57:24.925Z,99776.23
2023-02-18T14:00:07.145Z,99770.67
2023-02-18T14:02:38.440Z,99767.07
2023-02-18T14:05:12.036Z,99767.07
2023-02-18T14:08:03.892Z,99758.86
2023-02-18T14:10:37.403Z,99765.75
2023-02-18T14:13:26.117Z,99761.31
2023-02-18T14:16:00.371Z,99765.19
2023-02-18T14:18:42.807Z,99750.14
2023-02-18T14:21:16.427Z,99753.78
2023-02-18T14:23:58.035Z,99754.19
2023-02-18T14:26:34.796Z,99745.29
2023-02-18T14:29:08.233Z,99763.74
2023-02-18T14:31:44.719Z,99754.81
2023-02-18T14:34:22.008Z,99750.05
2023-02-18T14:37:15.789Z,99741.03
2023-02-18T14:39:53.517Z,99743.73
2023-02-18T14:42:51.229Z,99743.58
2023-02-18T14:45:27.873Z,99741.06
2023-02-18T14:48:06.882Z,99735.78
2023-02-18T14:50:39.984Z,99744.56
2023-02-18T14:53:22.454Z,99760.70
2023-02-18T14:55:58.556Z,99750.79
2023-02-18T14:58:37.896Z,99757.33
2023-02-18T15:01:11.254Z,99761.08
2023-02-18T15:03:42.579Z,99754.19
2023-02-18T15:06:28.378Z,99753.15
2023-02-18T15:09:03.487Z,99769.78
2023-02-18T15:11:46.391Z,99762.39
2023-02-18T15:14:19.954Z,99760.56
2023-02-18T15:16:53.000Z,99769.03
2023-02-18T15:19:27.559Z,99753.09
2023-02-18T15:21:58.854Z,99765.17
2023-02-18T15:24:32.332Z,99764.94
2023-02-18T15:27:33.113Z,99763.41
2023-02-18T15:30:19.150Z,99760.10
2023-02-18T15:33:00.932Z,99751.88
2023-02-18T15:35:34.516Z,99750.28
2023-02-18T15:38:04.984Z,99730.78
2023-02-18T15:40:38.946Z,99724.59
2023-02-18T15:43:13.304Z,99724.64
2023-02-18T15:45:45.500Z,99724.12
2023-02-18T15:48:24.898Z,99727.33
2023-02-18T15:51:02.722Z,99736.64
2023-02-18T15:53:31.254Z,99727.19
2023-02-18T15:56:03.134Z,99726.48
2023-02-18T15:58:34.321Z,99727.23
2023-02-18T16:01:07.810Z,99736.55
2023-02-18T16:03:42.539Z,99731.14
2023-02-18T16:06:22.325Z,99737.30
2023-02-18T16:09:10.654Z,99735.30
2023-02-18T16:11:45.053Z,99738.14
2023-02-18T16:14:36.940Z,99725.55
2023-02-18T16:17:16.984Z,99730.92
2023-02-18T16:20:03.850Z,99731.52
2023-02-18T16:22:34.741Z,99736.14
2023-02-18T16:25:26.448Z,99735.21
2023-02-18T16:28:05.794Z,99735.80
2023-02-18T16:30:37.634Z,99729.09
2023-02-18T16:33:08.681Z,99717.30
2023-02-18T16:35:49.618Z,99720.59
2023-02-18T16:38:20.699Z,99712.00
2023-02-18T16:40:51.728Z,99717.77
2023-02-18T16:43:25.173Z,99717.30
2023-02-18T16:45:58.324Z,99710.24
2023-02-18T16:48:37.641Z,99712.61
2023-02-18T16:51:14.105Z,99711.42
2023-02-18T16:53:44.877Z,99718.13
2023-02-18T16:56:18.501Z,99714.73
2023-02-18T16:58:50.850Z,99710.47
2023-02-18T17:01:30.287Z,99717.55
2023-02-18T17:04:03.064Z,99720.25
2023-02-18T17:06:34.458Z,99733.53
2023-02-18T17:09:06.755Z,99738.99
2023-02-18T17:11:37.604Z,99744.39
2023-02-18T17:14:08.105Z,99748.69
2023-02-18T17:16:39.782Z,99751.41
2023-02-18T17:19:10.334Z,99758.86
2023-02-18T17:21:41.113Z,99756.86
2023-02-18T17:24:15.874Z,99763.48
2023-02-18T17:26:46.564Z,99765.68
2023-02-18T17:29:17.331Z,99769.02
2023-02-18T17:31:50.017Z,99770.00
2023-02-18T17:34:32.786Z,99785.89
2023-02-18T17:37:03.264Z,99793.65
2023-02-18T17:39:33.689Z,99794.02
2023-02-18T17:42:05.445Z,99790.84
2023-02-18T17:44:37.400Z,99800.53
2023-02-18T17:47:09.099Z,99795.45
2023-02-18T17:49:39.697Z,99800.94
2023-02-18T17:52:13.073Z,99804.14
2023-02-18T17:54:43.595Z,99814.18
2023-02-18T17:57:14.079Z,99811.70
2023-02-18T17:59:44.515Z,99821.11
2023-02-18T18:02:23.764Z,99830.46
2023-02-18T18:04:54.617Z,99834.90
2023-02-18T18:07:25.113Z,99844.80
2023-02-18T18:09:55.612Z,99839.63
2023-02-18T18:12:26.599Z,99848.14
2023-02-18T18:14:57.592Z,99853.75
2023-02-18T18:17:28.177Z,99843.77
2023-02-18T18:19:58.647Z,99846.03
2023-02-18T18:22:29.148Z,99833.19
2023-02-18T18:25:20.790Z,99857.19
2023-02-18T18:27:56.235Z,99852.84
2023-02-18T18:30:29.600Z,99856.42
2023-02-18T18:33:00.593Z,99857.44
2023-02-18T18:35:37.801Z,99860.95
2023-02-18T18:38:08.458Z,99859.42
2023-02-18T18:40:39.007Z,99858.05
2023-02-18T18:43:11.377Z,99867.40
2023-02-18T18:45:41.951Z,99867.15
2023-02-18T18:48:12.870Z,99868.95
2023-02-18T18:50:44.262Z,99862.48
2023-02-18T18:53:27.543Z,99863.08
2023-02-18T18:56:00.602Z,99867.50
2023-02-18T18:58:31.746Z,99869.45
2023-02-18T19:01:05.068Z,99871.69
2023-02-18T19:03:37.178Z,99862.30
2023-02-18T19:06:07.622Z,99873.74
2023-02-18T19:08:38.076Z,99877.30
2023-02-18T19:11:08.940Z,99877.31
2023-02-18T19:13:39.641Z,99883.73
2023-02-18T19:16:23.104Z,99884.16
2023-02-18T19:18:54.510Z,99883.01
2023-02-18T19:21:26.545Z,99880.22
2023-02-18T19:24:02.515Z,99894.20
2023-02-18T19:26:55.204Z,99906.68
2023-02-18T19:29:41.112Z,99914.55
2023-02-18T19:32:13.245Z,99900.00
2023-02-18T19:34:44.018Z,99911.31
2023-02-18T19:37:14.618Z,99918.96
2023-02-18T19:39:45.323Z,99928.19
2023-02-18T19:42:15.822Z,99931.23
2023-02-18T19:44:47.560Z,99934.59
2023-02-18T19:47:21.536Z,99940.88
2023-02-18T19:50:03.560Z,99942.19
2023-02-18T19:52:34.452Z,99934.53
2023-02-18T19:55:05.282Z,99942.24
2023-02-18T19:57:36.833Z,99958.92
2023-02-18T20:00:09.736Z,99958.42
2023-02-18T20:02:40.827Z,99969.18
2023-02-18T20:05:18.695Z,99976.55
2023-02-18T20:07:54.055Z,99975.77
2023-02-18T20:10:31.813Z,99985.34
2023-02-18T20:13:04.094Z,99986.57
2023-02-18T20:15:35.896Z,99997.22
2023-02-18T20:18:06.435Z,99992.83
2023-02-18T20:20:37.060Z,99981.95
2023-02-18T20:23:08.825Z,99995.25
2023-02-18T20:25:40.575Z,99991.86
2023-02-18T20:28:19.427Z,99994.77
2023-02-18T20:30:47.348Z,99990.44
2023-02-18T20:33:19.741Z,100010.27
2023-02-18T20:36:06.602Z,100000.66
2023-02-18T20:38:41.690Z,100002.48
2023-02-18T20:41:14.794Z,100006.28
2023-02-18T20:43:45.539Z,100026.44
2023-02-18T20:46:21.251Z,100017.41
2023-02-18T20:48:53.316Z,100020.06
